Time;durP1;ratioP1;P1;durP2;ratioP2;P2;SDS_P1;SDS_P2;PMS_P1;PMS_P2;Temp;Humidity;BMP_temperature;BMP_pressure;BME280_temperature;BME280_humidity;BME280_pressure;Samples;Min_cycle;Max_cycle;Signal;HPM_P1;HPM_P2
2022/03/24 00:02:15;;;;;;;57.42;37.00;;;;;;;5.04;76.94;102797.34;5243044;28;20526;-65
2022/03/24 00:04:46;;;;;;;59.72;37.67;;;;;;;5.08;79.16;102796.34;5241499;28;20035;-65
2022/03/24 00:07:17;;;;;;;60.15;38.22;;;;;;;5.00;77.70;102797.41;5242470;28;20029;-65
2022/03/24 00:09:49;;;;;;;63.17;37.42;;;;;;;4.92;78.13;102800.22;5242263;28;20036;-65
2022/03/24 00:12:22;;;;;;;58.25;37.58;;;;;;;4.96;77.63;102803.69;5240919;28;20139;-65
2022/03/24 00:14:53;;;;;;;64.40;37.90;;;;;;;4.94;78.44;102793.13;5241075;28;20056;-65
2022/03/24 00:17:24;;;;;;;62.05;36.67;;;;;;;4.85;78.08;102791.56;5244585;28;20372;-65
2022/03/24 00:19:56;;;;;;;59.72;38.65;;;;;;;4.85;80.18;102788.91;5248637;28;20048;-65
2022/03/24 00:22:28;;;;;;;62.78;37.08;;;;;;;4.87;78.28;102800.34;5253761;28;20033;-65
2022/03/24 00:24:59;;;;;;;66.28;39.10;;;;;;;4.78;78.25;102789.94;5256321;28;20045;-65
2022/03/24 00:27:31;;;;;;;65.00;38.55;;;;;;;4.71;78.78;102791.81;5245645;28;20021;-65
2022/03/24 00:30:03;;;;;;;65.30;38.28;;;;;;;4.74;79.15;102792.66;5241180;28;20111;-66
2022/03/24 00:32:36;;;;;;;62.30;37.42;;;;;;;4.74;79.75;102787.38;5246421;28;20033;-65
2022/03/24 00:35:08;;;;;;;61.88;36.47;;;;;;;4.68;79.41;102789.25;5240388;28;20160;-65
2022/03/24 00:37:39;;;;;;;62.55;38.30;;;;;;;4.64;79.40;102786.69;5245839;28;20029;-66
2022/03/24 00:40:11;;;;;;;57.78;36.38;;;;;;;4.67;80.70;102782.22;5252192;28;20040;-66
2022/03/24 00:42:43;;;;;;;65.57;38.08;;;;;;;4.63;81.06;102782.31;5243593;28;20079;-66
2022/03/24 00:45:14;;;;;;;65.47;38.75;;;;;;;4.59;80.71;102778.00;5239212;28;20029;-66
2022/03/24 00:47:46;;;;;;;60.70;37.95;;;;;;;4.60;80.53;102780.63;5239441;28;20369;-65
2022/03/24 00:50:17;;;;;;;64.75;38.13;;;;;;;4.56;81.48;102778.06;5241003;28;20032;-66
2022/03/24 00:52:49;;;;;;;63.85;38.47;;;;;;;4.50;81.74;102779.06;5242149;28;20607;-66
2022/03/24 00:55:20;;;;;;;65.82;38.53;;;;;;;4.41;82.53;102777.47;5239539;28;20025;-65
2022/03/24 00:57:55;;;;;;;64.65;37.03;;;;;;;4.39;82.38;102775.75;5240605;28;20025;-66
2022/03/24 01:00:28;;;;;;;64.25;38.95;;;;;;;4.30;81.49;102772.38;5242687;28;20442;-66
2022/03/24 01:03:00;;;;;;;63.88;37.83;;;;;;;4.32;81.78;102773.22;5245137;28;20040;-66
2022/03/24 01:05:31;;;;;;;68.15;37.90;;;;;;;4.33;80.91;102768.81;5243213;28;20033;-68
2022/03/24 01:08:03;;;;;;;60.92;37.25;;;;;;;4.33;81.14;102763.53;5243151;28;20387;-66
2022/03/24 01:10:36;;;;;;;61.45;38.17;;;;;;;4.28;81.50;102765.41;5249376;28;20056;-65
2022/03/24 01:13:08;;;;;;;61.00;36.97;;;;;;;4.19;81.16;102762.94;5242067;28;20384;-66
2022/03/24 01:15:42;;;;;;;66.10;38.03;;;;;;;4.24;81.95;102771.66;5239514;28;20041;-65
2022/03/24 01:18:14;;;;;;;60.25;37.22;;;;;;;4.16;82.00;102763.88;5242057;28;20025;-66
2022/03/24 01:20:46;;;;;;;61.13;36.70;;;;;;;4.08;81.15;102761.34;5240787;28;20552;-65
2022/03/24 01:23:17;;;;;;;60.28;36.60;;;;;;;4.13;83.02;102762.13;5245938;28;20032;-65
2022/03/24 01:25:49;;;;;;;66.43;36.35;;;;;;;4.06;81.54;102764.91;5248975;28;20478;-66
2022/03/24 01:28:21;;;;;;;59.17;36.65;;;;;;;4.05;82.19;102761.41;5240261;28;20067;-66
2022/03/24 01:30:53;;;;;;;63.35;37.45;;;;;;;4.02;82.11;102760.59;5239723;28;21354;-66
2022/03/24 01:33:24;;;;;;;61.17;36.15;;;;;;;3.98;81.39;102758.91;5240618;28;20033;-66
2022/03/24 01:35:56;;;;;;;62.88;36.05;;;;;;;3.94;81.47;102750.16;5237067;28;20371;-66
2022/03/24 01:38:27;;;;;;;61.70;37.97;;;;;;;3.91;81.99;102752.84;5242438;28;20051;-66
2022/03/24 01:40:59;;;;;;;62.30;37.35;;;;;;;3.81;82.11;102749.50;5238094;28;20041;-65
2022/03/24 01:43:31;;;;;;;64.93;36.15;;;;;;;3.79;81.19;102738.09;5239842;28;20029;-65
2022/03/24 01:46:03;;;;;;;61.38;37.00;;;;;;;3.78;83.37;102746.03;5241023;28;20045;-65
2022/03/24 01:48:35;;;;;;;64.70;37.85;;;;;;;3.67;81.79;102744.47;5242958;28;20029;-65
2022/03/24 01:51:07;;;;;;;61.55;38.40;;;;;;;3.80;83.76;102739.00;5232186;28;20093;-65
2022/03/24 01:53:38;;;;;;;69.95;38.83;;;;;;;3.79;83.18;102738.09;5230912;28;20025;-65
2022/03/24 01:56:11;;;;;;;64.25;37.58;;;;;;;3.65;82.49;102740.13;5231636;28;20463;-65
2022/03/24 01:58:44;;;;;;;66.95;37.53;;;;;;;3.79;83.67;102738.09;5229989;28;20360;-66
2022/03/24 02:01:35;;;;;;;66.20;38.92;;;;;;;3.63;82.52;102736.66;5232501;28;20033;-66
2022/03/24 02:04:08;;;;;;;63.28;38.25;;;;;;;3.61;83.32;102727.88;5240000;28;20041;-65
2022/03/24 02:06:40;;;;;;;66.47;39.05;;;;;;;3.68;84.26;102725.09;5230262;28;20258;-66
2022/03/24 02:09:13;;;;;;;63.83;37.10;;;;;;;3.63;83.35;102728.72;5237047;28;20045;-65
2022/03/24 02:11:44;;;;;;;60.17;37.30;;;;;;;3.59;83.41;102732.31;5231644;28;20472;-65
2022/03/24 02:14:16;;;;;;;62.33;36.72;;;;;;;3.51;83.15;102735.09;5237576;28;20049;-66
2022/03/24 02:16:48;;;;;;;62.28;35.67;;;;;;;3.43;83.02;102735.22;5265284;28;20039;-65
2022/03/24 02:19:22;;;;;;;64.30;37.42;;;;;;;3.46;83.38;102732.50;5232399;28;20033;-65
2022/03/24 02:22:00;;;;;;;65.60;38.65;;;;;;;3.49;85.18;102728.94;5232351;28;20044;-65
2022/03/24 02:24:34;;;;;;;62.90;36.97;;;;;;;3.48;84.17;102724.56;5238141;28;20048;-65
2022/03/24 02:27:06;;;;;;;60.97;37.10;;;;;;;3.43;84.43;102722.03;5230275;28;20041;-66
2022/03/24 02:29:38;;;;;;;63.97;37.22;;;;;;;3.41;84.12;102729.06;5240095;28;20048;-66
2022/03/24 02:32:11;;;;;;;65.57;36.90;;;;;;;3.36;84.22;102722.09;5234738;28;20166;-65
2022/03/24 02:34:48;;;;;;;64.05;37.20;;;;;;;3.29;84.11;102731.91;5242637;28;20025;-65
2022/03/24 02:37:22;;;;;;;62.95;37.15;;;;;;;3.32;85.35;102732.72;5241338;28;20079;-66
2022/03/24 02:39:56;;;;;;;61.20;36.55;;;;;;;3.36;84.69;102730.91;5231561;28;20083;-65
2022/03/24 02:42:30;;;;;;;61.05;36.67;;;;;;;3.28;84.06;102725.75;5233691;28;20369;-66
2022/03/24 02:45:06;;;;;;;64.97;38.58;;;;;;;3.22;84.17;102732.88;5225328;28;20055;-66
2022/03/24 02:47:38;;;;;;;63.35;37.00;;;;;;;3.26;84.90;102735.47;5231241;28;20037;-66
2022/03/24 02:50:09;;;;;;;61.38;36.22;;;;;;;3.25;85.66;102727.56;5232487;28;20775;-65
2022/03/24 02:52:40;;;;;;;62.42;35.78;;;;;;;3.09;84.34;102732.22;5231489;28;20187;-65
2022/03/24 02:55:11;;;;;;;65.78;36.47;;;;;;;3.07;84.85;102726.09;5233329;28;20535;-65
2022/03/24 02:57:43;;;;;;;61.42;37.38;;;;;;;3.04;84.87;102729.63;5231531;28;20483;-66
2022/03/24 03:00:15;;;;;;;59.15;35.58;;;;;;;3.11;85.33;102727.78;5230886;28;20387;-65
2022/03/24 03:02:47;;;;;;;60.20;36.17;;;;;;;3.08;85.82;102725.19;5232731;28;20451;-65
2022/03/24 03:05:18;;;;;;;62.72;36.22;;;;;;;2.98;85.41;102731.50;5238780;28;20116;-65
2022/03/24 03:07:51;;;;;;;57.35;34.97;;;;;;;2.99;85.52;102734.09;5237260;28;20025;-65
2022/03/24 03:10:22;;;;;;;63.20;35.75;;;;;;;2.98;85.12;102732.38;5239589;28;20140;-65
2022/03/24 03:12:54;;;;;;;57.53;33.92;;;;;;;2.91;85.92;102721.00;5233584;28;20033;-66
2022/03/24 03:15:25;;;;;;;62.72;35.65;;;;;;;2.97;86.30;102727.09;5232295;28;20574;-65
2022/03/24 03:17:57;;;;;;;61.30;34.58;;;;;;;2.87;85.64;102723.72;5233428;28;20127;-65
2022/03/24 03:20:28;;;;;;;58.22;35.05;;;;;;;2.90;86.20;102721.94;5238654;28;20032;-65
2022/03/24 03:23:03;;;;;;;60.05;33.85;;;;;;;2.88;86.06;102734.25;5240468;28;20563;-65
2022/03/24 03:25:35;;;;;;;61.20;35.30;;;;;;;2.88;87.32;102731.63;5234958;28;20033;-65
2022/03/24 03:28:07;;;;;;;57.58;34.53;;;;;;;2.92;87.61;102729.81;5252430;28;20036;-66
2022/03/24 03:30:38;;;;;;;60.45;34.97;;;;;;;2.94;89.02;102730.66;5239448;28;20104;-66
2022/03/24 03:33:10;;;;;;;62.78;35.95;;;;;;;2.86;87.30;102727.28;5236287;28;20051;-65
2022/03/24 03:35:44;;;;;;;63.50;35.75;;;;;;;2.81;88.23;102727.31;5241988;28;20037;-66
2022/03/24 03:38:15;;;;;;;59.70;34.85;;;;;;;2.75;86.53;102730.91;5242145;28;20032;-66
2022/03/24 03:40:47;;;;;;;65.25;35.30;;;;;;;2.66;86.70;102733.66;5236918;28;20025;-66
2022/03/24 03:43:18;;;;;;;61.25;35.40;;;;;;;2.67;87.05;102734.56;5232793;28;20044;-65
2022/03/24 03:45:49;;;;;;;59.72;34.85;;;;;;;2.69;86.94;102730.13;5233938;28;20442;-66
2022/03/24 03:48:21;;;;;;;58.25;34.13;;;;;;;2.63;87.01;102736.34;5235978;28;20375;-66
2022/03/24 03:50:53;;;;;;;58.97;34.47;;;;;;;2.63;86.46;102731.09;5236388;28;20025;-66
2022/03/24 03:53:24;;;;;;;60.65;35.58;;;;;;;2.65;88.71;102734.56;5234960;28;20487;-65
2022/03/24 03:55:55;;;;;;;61.00;35.88;;;;;;;2.54;87.07;102726.78;5243225;28;20500;-65
2022/03/24 03:58:26;;;;;;;57.90;35.17;;;;;;;2.63;87.23;102727.59;5240116;28;20025;-66
2022/03/24 04:00:58;;;;;;;64.03;37.28;;;;;;;2.55;87.67;102730.28;5230588;28;20064;-66
2022/03/24 04:03:34;;;;;;;65.10;35.50;;;;;;;2.47;87.61;102725.13;5230951;28;20025;-65
2022/03/24 04:06:11;;;;;;;61.90;35.00;;;;;;;2.49;87.71;102730.38;5230058;28;20036;-65
2022/03/24 04:08:43;;;;;;;59.53;37.15;;;;;;;2.51;87.69;102732.13;5228893;28;20140;-65
2022/03/24 04:11:15;;;;;;;60.28;34.35;;;;;;;2.55;88.43;102725.91;5241259;28;20037;-65
2022/03/24 04:13:46;;;;;;;60.90;35.08;;;;;;;2.49;88.22;102733.91;5236694;28;20132;-65
2022/03/24 04:16:18;;;;;;;64.10;35.92;;;;;;;2.53;87.86;102727.69;5237107;28;22140;-65
2022/03/24 04:18:49;;;;;;;60.90;34.70;;;;;;;2.52;88.51;102728.56;5230015;28;20038;-65
2022/03/24 04:21:21;;;;;;;57.78;34.58;;;;;;;2.46;88.49;102733.91;5226166;28;20846;-66
2022/03/24 04:23:52;;;;;;;60.40;34.03;;;;;;;2.40;88.29;102731.38;5231098;28;20936;-66
2022/03/24 04:26:23;;;;;;;61.63;34.63;;;;;;;2.41;88.64;102727.81;5234992;28;20056;-65
2022/03/24 04:28:55;;;;;;;59.28;35.08;;;;;;;2.45;89.54;102733.94;5233446;28;20801;-66
2022/03/24 04:31:26;;;;;;;59.45;33.92;;;;;;;2.40;89.06;102726.09;5232841;28;20056;-66
2022/03/24 04:33:57;;;;;;;62.45;34.33;;;;;;;2.38;88.78;102727.88;5233242;28;20041;-65
2022/03/24 04:36:28;;;;;;;56.60;34.05;;;;;;;2.37;89.20;102727.91;5230683;28;20029;-66
2022/03/24 04:39:02;;;;;;;62.40;33.90;;;;;;;2.41;88.80;102732.22;5232060;28;20403;-66
2022/03/24 04:41:34;;;;;;;62.23;35.03;;;;;;;2.38;88.72;102729.63;5233674;28;20145;-66
2022/03/24 04:44:05;;;;;;;57.17;33.10;;;;;;;2.30;88.82;102729.72;5232640;28;20029;-65
2022/03/24 04:46:37;;;;;;;62.75;36.30;;;;;;;2.29;89.06;102723.59;5227962;28;20036;-65
2022/03/24 04:49:09;;;;;;;65.93;37.50;;;;;;;2.30;89.55;102727.06;5251954;28;20028;-65
2022/03/24 04:51:40;;;;;;;62.33;35.53;;;;;;;2.34;89.74;102728.81;5234929;28;20032;-65
2022/03/24 04:54:11;;;;;;;64.60;36.47;;;;;;;2.21;89.38;102728.06;5232403;28;20041;-65
2022/03/24 04:56:44;;;;;;;62.83;36.30;;;;;;;2.19;89.13;102728.97;5238254;28;20120;-65
2022/03/24 04:59:15;;;;;;;63.45;35.38;;;;;;;2.20;89.64;102730.72;5234736;28;20458;-65
2022/03/24 05:01:47;;;;;;;67.57;35.97;;;;;;;2.21;90.35;102721.94;5235425;28;20037;-66
2022/03/24 05:04:18;;;;;;;63.60;36.80;;;;;;;2.16;91.20;102735.13;5239178;28;20025;-65
2022/03/24 05:06:50;;;;;;;64.20;35.83;;;;;;;2.13;90.50;102727.28;5240472;28;20036;-65
2022/03/24 05:09:22;;;;;;;60.50;35.47;;;;;;;2.09;89.95;102736.09;5231129;28;20127;-66
2022/03/24 05:11:53;;;;;;;62.63;34.72;;;;;;;2.05;90.06;102737.00;5231953;28;21472;-65
2022/03/24 05:14:24;;;;;;;61.63;36.42;;;;;;;2.02;90.36;102735.28;5232109;28;20121;-65
2022/03/24 05:16:55;;;;;;;61.70;36.00;;;;;;;2.05;90.60;102740.53;5230549;28;20406;-65
2022/03/24 05:19:27;;;;;;;65.70;36.28;;;;;;;2.04;91.09;102735.28;5236046;28;20509;-65
2022/03/24 05:21:58;;;;;;;61.67;35.75;;;;;;;2.00;91.29;102736.22;5235215;28;20033;-66
2022/03/24 05:24:30;;;;;;;61.97;35.30;;;;;;;1.99;91.68;102739.72;5231266;28;20028;-66
2022/03/24 05:27:01;;;;;;;63.08;34.38;;;;;;;1.95;91.18;102744.13;5234210;28;20102;-66
2022/03/24 05:29:32;;;;;;;60.08;35.88;;;;;;;1.92;90.66;102745.03;5231941;28;20128;-66
2022/03/24 05:32:04;;;;;;;60.78;34.20;;;;;;;1.89;90.84;102752.09;5235315;28;20539;-66
2022/03/24 05:34:36;;;;;;;63.33;34.90;;;;;;;1.95;91.54;102745.00;5235085;28;20088;-66
2022/03/24 05:37:07;;;;;;;65.30;36.05;;;;;;;1.92;91.72;102752.09;5233010;28;20082;-66
2022/03/24 05:39:38;;;;;;;58.92;34.22;;;;;;;1.94;90.82;102748.53;5239698;28;20083;-66
2022/03/24 05:42:10;;;;;;;59.97;34.40;;;;;;;1.93;90.54;102753.81;5240255;28;20490;-66
2022/03/24 05:44:41;;;;;;;61.83;34.70;;;;;;;1.88;90.87;102750.34;5239385;28;20029;-66
2022/03/24 05:47:12;;;;;;;62.88;34.53;;;;;;;1.90;91.00;102749.47;5241611;28;20037;-66
2022/03/24 05:49:44;;;;;;;63.15;34.75;;;;;;;1.96;90.61;102762.56;5244044;28;20471;-66
2022/03/24 05:52:16;;;;;;;71.57;34.85;;;;;;;1.88;90.99;102759.13;5238902;28;20699;-66
2022/03/24 05:54:47;;;;;;;66.50;34.08;;;;;;;1.91;91.25;102764.34;5236569;28;20108;-66
2022/03/24 05:57:19;;;;;;;75.38;35.20;;;;;;;1.91;91.12;102755.59;5246499;28;20094;-66
2022/03/24 05:59:50;;;;;;;70.82;36.83;;;;;;;1.88;91.34;102756.50;5241865;28;20032;-66
2022/03/24 06:02:22;;;;;;;66.82;34.58;;;;;;;1.90;91.63;102753.84;5246262;28;20060;-66
2022/03/24 06:04:54;;;;;;;69.55;37.20;;;;;;;1.89;91.74;102760.84;5240186;28;20037;-66
2022/03/24 06:07:25;;;;;;;67.13;36.55;;;;;;;1.90;92.39;102764.38;5233951;28;20065;-66
2022/03/24 06:09:57;;;;;;;63.90;35.03;;;;;;;2.00;92.87;102768.66;5248677;28;20542;-66
2022/03/24 06:12:28;;;;;;;66.65;35.95;;;;;;;2.00;92.16;102767.81;5240197;28;20108;-66
2022/03/24 06:15:00;;;;;;;65.45;37.15;;;;;;;1.99;91.83;102773.94;5231969;28;20147;-66
2022/03/24 06:17:32;;;;;;;67.68;38.28;;;;;;;2.02;93.05;102769.53;5234652;28;20033;-66
2022/03/24 06:20:04;;;;;;;71.53;38.20;;;;;;;2.04;92.84;102769.50;5230537;28;20036;-66
2022/03/24 06:22:50;;;;;;;71.13;38.47;;;;;;;2.13;92.58;102770.28;5235405;28;20032;-66
2022/03/24 06:25:22;;;;;;;71.53;37.28;;;;;;;2.10;92.25;102772.06;5233997;28;20029;-66
2022/03/24 06:27:55;;;;;;;71.38;36.63;;;;;;;2.15;92.30;102773.78;5235864;28;20040;-66
2022/03/24 06:30:28;;;;;;;73.68;39.67;;;;;;;2.20;93.47;102778.97;5231549;28;20037;-66
2022/03/24 06:33:00;;;;;;;73.13;39.00;;;;;;;2.23;93.12;102771.06;5240112;28;20098;-66
2022/03/24 06:35:31;;;;;;;70.07;37.92;;;;;;;2.27;92.76;102771.91;5246385;28;20040;-67
2022/03/24 06:38:03;;;;;;;72.20;39.20;;;;;;;2.29;92.85;102776.25;5235029;28;20040;-66
2022/03/24 06:40:35;;;;;;;76.15;40.35;;;;;;;2.34;93.31;102774.47;5235936;28;20395;-66
2022/03/24 06:43:07;;;;;;;75.20;42.10;;;;;;;2.40;93.17;102770.00;5232882;28;20434;-66
2022/03/24 06:45:39;;;;;;;75.75;40.22;;;;;;;2.44;92.85;102764.69;5234969;28;20033;-66
2022/03/24 06:48:10;;;;;;;74.88;41.40;;;;;;;2.46;92.52;102775.22;5246029;28;20435;-66
2022/03/24 06:50:41;;;;;;;78.57;42.10;;;;;;;2.56;92.57;102771.56;5236560;28;20637;-66
2022/03/24 06:53:13;;;;;;;68.57;40.65;;;;;;;2.60;91.90;102767.13;5238535;28;20428;-66
2022/03/24 06:55:44;;;;;;;69.63;40.67;;;;;;;2.70;91.91;102774.03;5246235;28;20066;-66
2022/03/24 06:58:15;;;;;;;74.22;42.25;;;;;;;2.73;92.44;102774.00;5229888;28;20037;-66
2022/03/24 07:00:47;;;;;;;71.97;40.80;;;;;;;2.81;92.56;102774.78;5235192;28;20021;-66
2022/03/24 07:03:18;;;;;;;76.03;41.53;;;;;;;2.87;92.10;102776.47;5233004;28;20098;-66
2022/03/24 07:05:49;;;;;;;72.90;42.10;;;;;;;2.94;91.49;102779.00;5241564;28;20025;-66
2022/03/24 07:08:23;;;;;;;72.10;40.90;;;;;;;3.10;91.47;102782.28;5242469;28;20185;-66
2022/03/24 07:10:54;;;;;;;71.07;40.88;;;;;;;3.17;90.98;102776.94;5239726;28;21948;-66
2022/03/24 07:13:26;;;;;;;83.78;41.92;;;;;;;3.29;90.77;102777.63;5237989;28;20091;-66
2022/03/24 07:15:57;;;;;;;73.80;41.88;;;;;;;3.36;90.31;102782.78;5246726;28;20037;-66
2022/03/24 07:18:28;;;;;;;71.18;41.92;;;;;;;3.46;89.86;102781.78;5254086;28;20483;-66
2022/03/24 07:21:00;;;;;;;73.03;41.80;;;;;;;3.64;89.75;102785.88;5249981;28;20128;-66
2022/03/24 07:23:32;;;;;;;74.47;40.58;;;;;;;3.71;89.13;102782.25;5254459;28;20053;-66
2022/03/24 07:26:05;;;;;;;73.00;41.80;;;;;;;3.79;88.85;102787.41;5254166;28;20395;-66
2022/03/24 07:28:36;;;;;;;70.55;40.95;;;;;;;3.95;89.20;102785.38;5249773;28;20467;-66
2022/03/24 07:31:14;;;;;;;72.53;41.58;;;;;;;3.99;88.26;102787.94;5256142;28;20043;-66
2022/03/24 07:33:47;;;;;;;69.78;40.83;;;;;;;4.14;88.05;102789.41;5252923;28;20856;-65
2022/03/24 07:36:23;;;;;;;78.47;39.97;;;;;;;4.26;86.84;102786.56;5255151;28;20044;-66
2022/03/24 07:38:55;;;;;;;66.20;40.67;;;;;;;4.39;86.53;102791.59;5250393;28;20116;-66
2022/03/24 07:41:27;;;;;;;70.43;40.33;;;;;;;4.50;86.10;102785.19;5245514;28;20495;-66
2022/03/24 07:43:59;;;;;;;68.82;40.13;;;;;;;4.64;85.84;102784.94;5247008;28;20099;-66
2022/03/24 07:46:30;;;;;;;67.18;40.38;;;;;;;4.83;85.39;102787.19;5252332;28;20112;-66
2022/03/24 07:49:02;;;;;;;67.00;39.80;;;;;;;4.97;84.21;102800.16;5248457;28;20470;-66
2022/03/24 07:51:34;;;;;;;63.58;38.70;;;;;;;5.18;83.07;102790.84;5247294;28;20033;-66
2022/03/24 07:54:09;;;;;;;60.45;37.17;;;;;;;5.42;80.49;102787.63;5251765;28;20033;-66
2022/03/24 07:56:41;;;;;;;62.75;36.47;;;;;;;5.65;78.13;102783.56;5253469;28;20029;-66
2022/03/24 07:59:12;;;;;;;57.00;36.05;;;;;;;5.85;77.04;102793.69;5247423;28;20493;-66
2022/03/24 08:01:43;;;;;;;57.05;35.30;;;;;;;5.87;77.07;102790.06;5245870;28;20104;-66
2022/03/24 08:04:14;;;;;;;53.67;33.53;;;;;;;6.13;75.61;102792.97;5251573;28;20395;-66
2022/03/24 08:06:46;;;;;;;53.13;32.92;;;;;;;6.34;74.81;102796.84;5251670;28;20032;-66
2022/03/24 08:09:18;;;;;;;57.08;34.10;;;;;;;6.46;74.24;102793.84;5251512;28;20430;-66
2022/03/24 08:11:49;;;;;;;55.83;32.88;;;;;;;6.60;73.08;102797.00;5240611;28;20391;-66
2022/03/24 08:14:21;;;;;;;59.13;35.95;;;;;;;6.75;72.64;102793.03;5241514;28;20039;-66
2022/03/24 08:16:52;;;;;;;58.58;34.70;;;;;;;7.01;70.41;102796.69;5238413;28;20530;-66
2022/03/24 08:19:23;;;;;;;56.65;34.05;;;;;;;7.16;69.53;102792.69;5234904;28;20522;-66
2022/03/24 08:21:54;;;;;;;57.38;33.25;;;;;;;7.32;69.73;102791.28;5237814;28;20143;-66
2022/03/24 08:24:26;;;;;;;53.05;33.35;;;;;;;7.55;67.92;102795.88;5244543;28;20044;-66
2022/03/24 08:26:57;;;;;;;51.60;32.70;;;;;;;7.74;67.38;102805.91;5247916;28;20032;-66
2022/03/24 08:29:29;;;;;;;49.90;32.28;;;;;;;7.95;65.12;102801.66;5240450;28;20037;-66
2022/03/24 08:32:00;;;;;;;49.10;32.40;;;;;;;8.02;65.01;102803.19;5238725;28;20043;-66
2022/03/24 08:34:31;;;;;;;54.00;33.53;;;;;;;8.13;64.45;102805.47;5249038;28;20096;-66
2022/03/24 08:37:03;;;;;;;49.67;32.25;;;;;;;8.39;59.15;102802.75;5246628;28;20098;-66
2022/03/24 08:39:34;;;;;;;50.92;32.38;;;;;;;8.55;60.48;102810.22;5249217;28;20059;-66
2022/03/24 08:42:05;;;;;;;50.45;30.20;;;;;;;8.80;57.61;102807.50;5252616;28;20118;-66
2022/03/24 08:44:37;;;;;;;47.83;30.80;;;;;;;8.86;57.91;102809.06;5243843;28;20032;-65
2022/03/24 08:47:08;;;;;;;49.42;30.58;;;;;;;9.10;56.36;102809.94;5251432;28;20494;-66
2022/03/24 08:49:39;;;;;;;49.40;30.27;;;;;;;9.48;54.79;102803.09;5256808;28;20227;-66
2022/03/24 08:52:12;;;;;;;51.38;31.10;;;;;;;9.77;52.94;102806.38;5250743;28;20072;-66
2022/03/24 08:54:43;;;;;;;48.10;29.45;;;;;;;9.84;53.98;102804.31;5251322;28;20037;-64
2022/03/24 08:57:14;;;;;;;53.83;30.13;;;;;;;10.02;52.46;102801.72;5253392;28;20040;-66
2022/03/24 08:59:45;;;;;;;47.55;28.85;;;;;;;10.15;51.63;102803.88;5251360;28;20033;-65
2022/03/24 09:02:17;;;;;;;43.55;30.10;;;;;;;10.43;49.67;102810.69;5252127;28;20125;-66
2022/03/24 09:04:49;;;;;;;46.25;29.70;;;;;;;10.49;50.79;102811.31;5249297;28;20041;-65
2022/03/24 09:07:20;;;;;;;43.80;29.92;;;;;;;10.67;48.90;102808.75;5238681;28;20111;-65
2022/03/24 09:09:51;;;;;;;49.05;29.98;;;;;;;10.86;49.57;102812.31;5246770;28;20087;-65
2022/03/24 09:12:24;;;;;;;44.80;29.30;;;;;;;11.01;48.53;102818.75;5248903;28;20024;-65
2022/03/24 09:14:55;;;;;;;53.00;29.42;;;;;;;11.35;47.24;102814.44;5246044;28;20907;-63
2022/03/24 09:17:26;;;;;;;40.83;28.05;;;;;;;11.39;48.49;102813.38;5248741;28;20025;-66
2022/03/24 09:19:58;;;;;;;37.95;26.33;;;;;;;11.44;45.89;102819.34;5250982;28;20029;-65
2022/03/24 09:22:30;;;;;;;43.10;28.73;;;;;;;11.77;46.76;102808.81;5249133;28;20036;-65
2022/03/24 09:25:01;;;;;;;39.22;26.98;;;;;;;11.96;46.36;102823.97;5249666;28;20036;-65
2022/03/24 09:27:34;;;;;;;36.15;25.30;;;;;;;11.98;43.16;102821.22;5251597;28;20033;-65
2022/03/24 09:30:07;;;;;;;37.08;25.52;;;;;;;11.82;45.33;102827.31;5247526;28;20083;-65
2022/03/24 09:32:38;;;;;;;37.97;26.30;;;;;;;12.24;43.48;102818.06;5251343;28;20133;-65
2022/03/24 09:35:10;;;;;;;35.60;23.95;;;;;;;12.20;43.34;102815.66;5250419;28;20377;-65
2022/03/24 09:37:42;;;;;;;32.95;23.90;;;;;;;12.44;41.30;102816.16;5249142;28;20441;-65
2022/03/24 09:40:14;;;;;;;29.50;21.00;;;;;;;12.75;36.65;102824.28;5246894;28;20025;-65
2022/03/24 09:42:46;;;;;;;26.98;21.13;;;;;;;12.73;37.30;102823.50;5248150;28;20394;-65
2022/03/24 09:45:17;;;;;;;27.60;20.75;;;;;;;12.94;36.55;102826.84;5251953;28;20033;-65
2022/03/24 09:47:49;;;;;;;27.45;20.05;;;;;;;13.23;36.13;102824.34;5250921;28;20741;-66
2022/03/24 09:50:22;;;;;;;28.90;20.90;;;;;;;13.19;35.46;102819.25;5253120;28;20029;-66
2022/03/24 09:52:53;;;;;;;25.60;20.02;;;;;;;13.47;35.34;102816.75;5250439;28;20039;-66
2022/03/24 09:55:26;;;;;;;32.70;23.92;;;;;;;13.58;35.35;102823.34;5249993;28;20033;-65
2022/03/24 09:57:57;;;;;;;36.63;26.38;;;;;;;13.63;34.72;102822.09;5246379;28;20081;-65
2022/03/24 10:00:29;;;;;;;32.30;25.35;;;;;;;13.85;34.27;102823.53;5247227;28;20086;-66
2022/03/24 10:03:12;;;;;;;33.97;24.30;;;;;;;13.89;34.56;102811.69;5248936;28;20463;-65
2022/03/24 10:06:07;;;;;;;31.63;23.45;;;;;;;13.87;37.54;102818.94;5245598;28;20032;-66
2022/03/24 10:08:39;;;;;;;28.27;21.40;;;;;;;14.00;32.38;102819.97;5248754;28;20218;-66
2022/03/24 10:11:10;;;;;;;33.78;23.60;;;;;;;14.16;33.25;102819.03;5247481;28;20033;-65
2022/03/24 10:13:51;;;;;;;29.33;21.83;;;;;;;14.14;35.04;102827.19;5252534;28;20569;-66
2022/03/24 10:16:37;;;;;;;29.38;22.50;;;;;;;14.30;34.40;102817.25;5252396;28;20566;-66
2022/03/24 10:19:16;;;;;;;30.52;22.23;;;;;;;14.23;33.07;102818.56;5251965;28;20044;-66
2022/03/24 10:21:49;;;;;;;27.23;20.02;;;;;;;14.44;32.22;102808.34;5246663;28;20504;-66
2022/03/24 10:24:22;;;;;;;26.33;19.65;;;;;;;14.47;32.03;102807.28;5250314;28;20033;-66
2022/03/24 10:27:00;;;;;;;29.13;19.75;;;;;;;14.43;33.29;102803.06;5251857;28;20037;-66
2022/03/24 10:29:34;;;;;;;25.77;19.65;;;;;;;14.65;31.46;102800.81;5253589;28;20029;-66
2022/03/24 10:32:11;;;;;;;25.15;18.38;;;;;;;14.61;32.99;102793.91;5255417;28;20032;-66
2022/03/24 10:34:48;;;;;;;25.90;18.75;;;;;;;14.89;29.31;102806.44;5252451;28;20086;-66
2022/03/24 10:37:20;;;;;;;24.15;18.77;;;;;;;14.92;32.05;102805.41;5251334;28;20051;-66
2022/03/24 10:39:55;;;;;;;25.05;19.35;;;;;;;14.84;30.99;102799.63;5252412;28;20044;-66
2022/03/24 10:42:29;;;;;;;25.63;19.52;;;;;;;14.90;31.64;102802.81;5253624;28;20041;-66
2022/03/24 10:45:15;;;;;;;36.58;19.05;;;;;;;15.00;30.77;102811.16;5250335;28;20041;-66
2022/03/24 10:47:55;;;;;;;26.73;20.15;;;;;;;15.04;30.82;102798.38;5254837;28;20382;-66
2022/03/24 10:50:30;;;;;;;27.83;20.00;;;;;;;14.99;31.54;102797.81;5251914;28;20509;-66
2022/03/24 10:53:08;;;;;;;26.27;19.75;;;;;;;14.91;31.31;102795.59;5252903;28;20040;-66
2022/03/24 10:55:58;;;;;;;28.83;19.05;;;;;;;15.14;29.01;102798.66;5249373;28;20514;-65
2022/03/24 10:58:51;;;;;;;21.52;17.33;;;;;;;15.13;28.19;102796.91;5252009;28;20062;-66
2022/03/24 11:01:26;;;;;;;24.90;18.90;;;;;;;15.10;29.23;102789.91;5251997;28;20052;-65
2022/03/24 11:03:58;;;;;;;25.67;19.27;;;;;;;15.04;30.33;102799.22;5256342;28;20025;-66
2022/03/24 11:06:30;;;;;;;26.88;18.48;;;;;;;15.18;30.16;102797.47;5252959;28;20035;-66
2022/03/24 11:09:02;;;;;;;25.92;19.00;;;;;;;15.28;31.34;102791.41;5251722;28;20029;-65
2022/03/24 11:11:38;;;;;;;28.73;17.27;;;;;;;15.28;30.27;102798.59;5248480;28;20025;-65
2022/03/24 11:14:10;;;;;;;25.73;18.13;;;;;;;15.29;30.22;102797.66;5251412;28;20028;-65
2022/03/24 11:16:42;;;;;;;25.02;18.83;;;;;;;15.54;29.62;102787.97;5253038;28;20580;-66
2022/03/24 11:19:15;;;;;;;26.00;17.75;;;;;;;15.55;28.80;102800.44;5252707;28;20029;-65
2022/03/24 11:21:58;;;;;;;26.00;18.80;;;;;;;15.47;29.55;102793.75;5251321;28;20020;-66
2022/03/24 11:24:30;;;;;;;28.05;18.50;;;;;;;15.47;30.96;102785.69;5251882;28;20032;-65
2022/03/24 11:27:02;;;;;;;27.63;19.38;;;;;;;15.57;30.60;102791.31;5254671;28;20025;-65
2022/03/24 11:29:35;;;;;;;26.48;19.58;;;;;;;15.56;31.17;102789.56;5250641;28;20544;-66
2022/03/24 11:32:08;;;;;;;27.10;19.38;;;;;;;15.53;30.30;102787.06;5254372;28;20029;-66
2022/03/24 11:34:40;;;;;;;28.70;19.15;;;;;;;15.48;29.43;102778.47;5250616;28;20187;-66
2022/03/24 11:37:11;;;;;;;27.00;19.63;;;;;;;15.55;28.87;102784.28;5252490;28;20025;-66
2022/03/24 11:40:10;;;;;;;27.35;18.73;;;;;;;15.58;30.04;102781.41;5246896;28;20026;-66